MDT,Max TemperatureF,Mean TemperatureF,Min TemperatureF,Max Dew PointF,MeanDew PointF,Min DewpointF,Max Humidity, Mean Humidity, Min Humidity, Max Sea Level PressureIn, Mean Sea Level PressureIn, Min Sea Level PressureIn, Max VisibilityMiles, Mean VisibilityMiles, Min VisibilityMiles, Max Wind SpeedMPH, Mean Wind SpeedMPH, Max Gust SpeedMPH,PrecipitationIn, CloudCover, Events, WindDirDegrees
2013-7-1,76,61,46,54,48,41,100,67,33,30.39,30.14,30.06,10,10,5,21,8,26,0.08,2,Rain-Thunderstorm,118
2013-7-2,79,63,47,49,42,38,93,59,24,30.12,30.04,29.97,10,9,5,17,8,25,0.00,2,,101
2013-7-3,85,65,45,44,38,29,86,51,15,30.12,29.87,29.78,10,10,9,30,9,43,0.00,1,,330
2013-7-4,85,66,47,48,41,33,86,51,16,29.87,29.81,29.76,10,10,10,20,6,22,T,2,,128
2013-7-5,83,70,57,55,51,45,86,57,28,30.09,29.79,29.67,10,10,4,31,10,40,0.03,3,Rain-Thunderstorm,199
2013-7-6,82,68,53,52,43,32,93,55,17,30.08,29.79,29.72,10,10,10,26,12,33,0.01,1,Rain-Thunderstorm,282
2013-7-7,85,68,50,52,43,31,77,46,15,30.17,29.85,29.77,10,10,10,20,9,29,T,2,,237
2013-7-8,85,70,54,56,46,37,89,55,20,30.28,29.95,29.86,10,9,2,39,11,47,0.17,2,Rain-Thunderstorm,247
2013-7-9,86,68,50,50,40,30,83,49,15,30.38,30.03,29.96,10,10,8,26,10,43,T,2,Rain,186
2013-7-10,89,72,55,52,43,31,72,43,14,30.22,29.95,29.83,10,10,10,26,11,31,0.00,0,,151
2013-7-11,93,72,51,50,44,27,89,50,10,30.10,29.78,29.65,10,10,10,26,14,35,0.00,0,,177
2013-7-12,80,68,56,57,51,44,100,65,30,30.20,29.90,29.70,10,9,2,36,12,44,0.17,5,Rain-Thunderstorm,204
2013-7-13,81,67,53,58,53,48,100,69,38,30.34,30.08,29.90,10,8,0,26,7,35,0.82,4,Fog-Rain-Thunderstorm,109
2013-7-14,74,63,51,57,54,50,100,73,46,30.38,30.10,29.96,10,10,7,17,8,21,0.01,3,,104
2013-7-15,79,67,55,57,55,51,100,72,43,30.33,30.03,29.88,10,9,4,30,16,36,0.00,2,,151
2013-7-16,77,64,50,48,45,42,77,54,31,30.01,29.96,29.93,10,10,7,24,18,33,0.00,0,,147
2013-7-17,85,69,53,52,49,45,93,61,28,30.33,30.01,29.93,10,10,5,21,12,26,0.00,1,,148
2013-7-18,83,68,53,57,51,45,80,54,28,30.36,30.07,29.93,10,8,0,29,8,37,0.21,4,Rain-Thunderstorm,158
2013-7-19,78,65,51,58,52,48,96,67,38,30.29,30.01,29.90,10,10,6,25,11,31,0.02,1,Rain-Thunderstorm,160
2013-7-20,77,65,53,54,49,45,93,65,36,30.19,29.92,29.79,10,9,2,35,10,43,0.05,2,Rain-Thunderstorm,144
2013-7-21,88,67,46,47,34,21,93,52,10,30.10,29.78,29.68,10,10,10,25,8,35,0.00,0,,274
2013-7-22,88,67,45,46,28,11,71,38,5,29.85,29.80,29.76,10,10,8,23,8,30,0.00,0,,257
2013-7-23,88,68,47,53,33,12,72,39,6,30.22,29.90,29.82,10,10,6,21,9,25,0.00,0,,124
2013-7-24,82,68,54,54,51,48,83,59,35,30.26,29.98,29.87,10,10,6,36,14,45,0.07,2,Rain-Thunderstorm,148
2013-7-25,73,64,54,53,49,45,93,69,44,30.43,30.10,29.89,10,9,2,23,10,29,0.08,6,Rain-Thunderstorm,204
2013-7-26,81,64,46,51,42,33,96,59,21,30.19,30.08,29.99,10,10,10,21,7,24,0.00,1,,196
2013-7-27,81,65,48,57,46,35,80,50,20,30.20,29.95,29.85,10,10,2,31,9,37,0.12,3,Rain-Thunderstorm,145
2013-7-28,70,62,53,55,52,48,93,70,47,30.15,29.88,29.75,10,8,2,25,8,30,0.05,5,Rain-Thunderstorm,182
2013-7-29,71,61,50,53,46,41,93,65,37,30.04,29.91,29.79,10,10,6,30,10,35,T,4,,204
2013-7-30,80,63,45,47,42,35,86,54,22,30.36,30.09,30.03,10,10,10,24,7,29,0.00,2,,177
2013-7-31,79,63,46,50,43,38,86,55,23,30.43,30.16,30.00,10,10,10,28,8,32,0.00,2,Thunderstorm,159